Time;durP1;ratioP1;P1;durP2;ratioP2;P2;SDS_P1;SDS_P2;PMS_P1;PMS_P2;Temp;Humidity;BMP_temperature;BMP_pressure;BME280_temperature;BME280_humidity;BME280_pressure;Samples;Min_cycle;Max_cycle;Signal;HPM_P1;HPM_P2
2023/08/18 00:00:50;;;;;;;6.78;2.40;;;;;;;;;;5091903;28;20486;-61
2023/08/18 00:03:16;;;;;;;8.18;2.38;;;;;;;;;;5091592;28;20051;-61
2023/08/18 00:05:42;;;;;;;4.00;2.53;;;;;;;;;;5091846;28;20478;-61
2023/08/18 00:08:08;;;;;;;4.93;2.22;;;;;;;;;;5091610;28;20115;-61
2023/08/18 00:10:34;;;;;;;5.05;2.40;;;;;;;;;;5091420;28;20044;-61
2023/08/18 00:13:00;;;;;;;6.30;2.92;;;;;;;;;;5091653;28;20566;-61
2023/08/18 00:15:26;;;;;;;6.38;2.30;;;;;;;;;;5091910;28;20070;-61
2023/08/18 00:17:52;;;;;;;9.75;2.70;;;;;;;;;;5091241;28;20044;-61
2023/08/18 00:20:18;;;;;;;5.32;2.50;;;;;;;;;;5091554;28;20486;-61
2023/08/18 00:22:44;;;;;;;7.30;2.38;;;;;;;;;;5090197;28;20054;-61
2023/08/18 00:25:10;;;;;;;5.13;2.58;;;;;;;;;;5090889;28;20039;-61
2023/08/18 00:27:37;;;;;;;3.67;2.30;;;;;;;;;;5091378;28;20434;-61
2023/08/18 00:30:05;;;;;;;3.30;2.00;;;;;;;;;;5091155;28;20048;-61
2023/08/18 00:32:31;;;;;;;4.00;2.30;;;;;;;;;;5090924;28;20047;-61
2023/08/18 00:34:57;;;;;;;6.60;2.20;;;;;;;;;;5091244;28;20479;-61
2023/08/18 00:37:23;;;;;;;6.68;1.98;;;;;;;;;;5086477;28;20044;-61
2023/08/18 00:39:49;;;;;;;4.10;2.10;;;;;;;;;;5070443;28;20119;-61
2023/08/18 00:42:15;;;;;;;5.95;1.80;;;;;;;;;;5070891;28;20044;-61
2023/08/18 00:44:41;;;;;;;7.35;2.55;;;;;;;;;;5070909;28;20051;-61
2023/08/18 00:47:07;;;;;;;4.90;1.80;;;;;;;;;;5070798;28;20115;-61
2023/08/18 00:49:33;;;;;;;7.38;1.75;;;;;;;;;;5081072;28;20042;-61
2023/08/18 00:51:59;;;;;;;5.35;1.83;;;;;;;;;;5091252;28;20532;-61
2023/08/18 00:54:26;;;;;;;2.60;1.70;;;;;;;;;;5090324;28;20032;-61
2023/08/18 00:56:52;;;;;;;3.95;1.70;;;;;;;;;;5091289;28;20054;-61
2023/08/18 00:59:19;;;;;;;3.70;2.00;;;;;;;;;;5090672;28;20036;-61
2023/08/18 01:01:46;;;;;;;3.15;1.60;;;;;;;;;;5090332;28;20040;-61
2023/08/18 01:04:13;;;;;;;4.03;2.13;;;;;;;;;;5090941;28;20397;-61
2023/08/18 01:06:39;;;;;;;2.10;1.90;;;;;;;;;;5089298;28;20112;-61
2023/08/18 01:09:06;;;;;;;3.40;1.77;;;;;;;;;;5090446;28;20093;-61
2023/08/18 01:11:35;;;;;;;3.58;1.80;;;;;;;;;;5090746;28;20401;-61
2023/08/18 01:14:11;;;;;;;4.18;1.90;;;;;;;;;;5090617;28;20038;-61
2023/08/18 01:16:38;;;;;;;4.05;1.70;;;;;;;;;;5090402;28;20290;-61
2023/08/18 01:19:07;;;;;;;4.00;2.05;;;;;;;;;;5090619;28;20075;-61
2023/08/18 01:21:34;;;;;;;5.65;2.25;;;;;;;;;;5090572;28;20393;-61
2023/08/18 01:24:03;;;;;;;4.50;1.92;;;;;;;;;;5072187;28;20051;-61
2023/08/18 01:26:29;;;;;;;4.15;2.10;;;;;;;;;;5090679;28;20044;-61
2023/08/18 01:28:55;;;;;;;4.80;2.20;;;;;;;;;;5090088;28;20074;-61
2023/08/18 01:31:25;;;;;;;4.80;2.15;;;;;;;;;;5088471;28;20040;-61
2023/08/18 01:34:08;;;;;;;3.88;1.90;;;;;;;;;;5090410;28;20451;-61
2023/08/18 01:36:41;;;;;;;4.88;2.25;;;;;;;;;;5090395;28;20055;-61
2023/08/18 01:39:07;;;;;;;4.38;2.35;;;;;;;;;;5071085;28;20124;-61
2023/08/18 01:41:34;;;;;;;3.63;2.30;;;;;;;;;;5070176;28;20044;-61
2023/08/18 01:44:00;;;;;;;4.93;2.40;;;;;;;;;;5070287;28;20483;-61
2023/08/18 01:46:26;;;;;;;2.58;1.80;;;;;;;;;;5069781;28;20442;-61
2023/08/18 01:48:52;;;;;;;4.68;2.30;;;;;;;;;;5073398;28;20081;-61
2023/08/18 01:51:18;;;;;;;4.93;2.17;;;;;;;;;;5090360;28;20078;-61
2023/08/18 01:53:44;;;;;;;6.53;2.53;;;;;;;;;;5090000;28;20549;-61
2023/08/18 01:56:10;;;;;;;5.50;2.10;;;;;;;;;;5090228;28;20036;-61
2023/08/18 01:58:36;;;;;;;6.45;2.50;;;;;;;;;;5090284;28;20055;-61
2023/08/18 02:01:02;;;;;;;8.18;2.70;;;;;;;;;;5089513;28;20040;-61
2023/08/18 02:03:28;;;;;;;4.80;2.40;;;;;;;;;;5089996;28;20145;-61
2023/08/18 02:05:56;;;;;;;4.00;2.13;;;;;;;;;;5090181;28;20044;-61
2023/08/18 02:08:22;;;;;;;3.13;2.35;;;;;;;;;;5089683;28;20040;-61
2023/08/18 02:10:48;;;;;;;3.92;2.33;;;;;;;;;;5091612;28;20123;-61
2023/08/18 02:13:14;;;;;;;3.17;2.30;;;;;;;;;;5094120;28;20549;-61
2023/08/18 02:15:40;;;;;;;6.05;2.08;;;;;;;;;;5092282;28;20181;-61
2023/08/18 02:18:06;;;;;;;3.03;1.95;;;;;;;;;;5094007;28;20204;-61
2023/08/18 02:20:32;;;;;;;4.47;2.13;;;;;;;;;;5093771;28;20039;-61
2023/08/18 02:22:58;;;;;;;5.80;2.08;;;;;;;;;;5093746;28;20123;-61
2023/08/18 02:25:24;;;;;;;2.78;1.83;;;;;;;;;;5093479;28;20075;-61
2023/08/18 02:27:50;;;;;;;3.47;2.15;;;;;;;;;;5093488;28;20513;-61
2023/08/18 02:30:17;;;;;;;3.47;2.35;;;;;;;;;;5092268;28;20048;-61
2023/08/18 02:32:43;;;;;;;2.92;2.03;;;;;;;;;;5091723;28;20097;-61
2023/08/18 02:35:09;;;;;;;5.25;2.38;;;;;;;;;;5093632;28;20086;-61
2023/08/18 02:37:35;;;;;;;7.70;2.40;;;;;;;;;;5087259;28;20115;-61
2023/08/18 02:40:01;;;;;;;5.70;2.28;;;;;;;;;;5072517;28;20135;-61
2023/08/18 02:42:27;;;;;;;3.88;2.30;;;;;;;;;;5073324;28;20047;-61
2023/08/18 02:44:52;;;;;;;4.00;2.22;;;;;;;;;;5073321;28;20063;-61
2023/08/18 02:47:18;;;;;;;4.45;2.53;;;;;;;;;;5072690;28;20093;-61
2023/08/18 02:49:47;;;;;;;5.05;2.70;;;;;;;;;;5085129;28;20036;-61
2023/08/18 02:52:13;;;;;;;4.32;2.50;;;;;;;;;;5093259;28;20078;-61
2023/08/18 02:54:39;;;;;;;6.00;2.47;;;;;;;;;;5092850;28;20031;-61
2023/08/18 02:57:05;;;;;;;6.45;2.50;;;;;;;;;;5091823;28;20028;-61
2023/08/18 02:59:31;;;;;;;7.25;2.55;;;;;;;;;;5093388;28;20436;-61
2023/08/18 03:01:58;;;;;;;6.05;2.80;;;;;;;;;;5092411;28;20115;-61
2023/08/18 03:04:24;;;;;;;4.78;2.58;;;;;;;;;;5093201;28;20105;-61
2023/08/18 03:06:50;;;;;;;8.57;3.17;;;;;;;;;;5093108;28;20051;-61
2023/08/18 03:09:19;;;;;;;7.22;2.78;;;;;;;;;;5092598;28;20044;-61
2023/08/18 03:11:45;;;;;;;9.32;3.70;;;;;;;;;;5092949;28;20050;-61
2023/08/18 03:14:11;;;;;;;9.10;3.42;;;;;;;;;;5092802;28;20044;-61
2023/08/18 03:16:37;;;;;;;7.82;3.60;;;;;;;;;;5092583;28;20447;-61
2023/08/18 03:19:03;;;;;;;6.97;3.40;;;;;;;;;;5092783;28;20093;-61
2023/08/18 03:21:29;;;;;;;7.22;3.30;;;;;;;;;;5092237;28;20533;-61
2023/08/18 03:23:55;;;;;;;7.20;3.50;;;;;;;;;;5092525;28;20054;-61
2023/08/18 03:26:21;;;;;;;7.97;3.65;;;;;;;;;;5092733;28;20388;-61
2023/08/18 03:28:47;;;;;;;8.25;3.92;;;;;;;;;;5092327;28;20044;-61
2023/08/18 03:31:13;;;;;;;6.03;3.45;;;;;;;;;;5090776;28;20036;-61
2023/08/18 03:33:39;;;;;;;7.70;3.13;;;;;;;;;;5092472;28;20111;-61
2023/08/18 03:36:05;;;;;;;8.02;4.03;;;;;;;;;;5092400;28;20032;-61
2023/08/18 03:38:31;;;;;;;6.50;3.47;;;;;;;;;;5077923;28;20114;-61
2023/08/18 03:41:01;;;;;;;7.82;3.30;;;;;;;;;;5072213;28;20044;-61
2023/08/18 03:43:27;;;;;;;9.02;4.00;;;;;;;;;;5072172;28;20036;-61
2023/08/18 03:45:53;;;;;;;9.60;3.78;;;;;;;;;;5071571;28;20486;-61
2023/08/18 03:48:19;;;;;;;8.95;4.00;;;;;;;;;;5072146;28;20105;-61
2023/08/18 03:50:45;;;;;;;6.28;3.63;;;;;;;;;;5092076;28;20044;-61
2023/08/18 03:53:11;;;;;;;6.63;3.80;;;;;;;;;;5090535;28;20050;-61
2023/08/18 03:55:37;;;;;;;8.35;3.60;;;;;;;;;;5092142;28;20047;-61
2023/08/18 03:58:03;;;;;;;7.03;3.92;;;;;;;;;;5092114;28;20040;-61
2023/08/18 04:00:29;;;;;;;10.00;3.70;;;;;;;;;;5091469;28;20562;-61
2023/08/18 04:02:55;;;;;;;7.90;3.70;;;;;;;;;;5092061;28;20115;-61
2023/08/18 04:05:21;;;;;;;5.88;3.53;;;;;;;;;;5091973;28;20477;-61
2023/08/18 04:07:47;;;;;;;6.63;3.40;;;;;;;;;;5091474;28;20122;-61
2023/08/18 04:10:13;;;;;;;7.53;3.75;;;;;;;;;;5091791;28;20595;-61
2023/08/18 04:12:39;;;;;;;9.15;3.60;;;;;;;;;;5091642;28;20039;-61
2023/08/18 04:15:06;;;;;;;8.52;4.00;;;;;;;;;;5091354;28;20063;-61
2023/08/18 04:17:32;;;;;;;6.10;3.40;;;;;;;;;;5090167;28;20043;-61
2023/08/18 04:19:58;;;;;;;6.50;3.85;;;;;;;;;;5091631;28;20040;-61
2023/08/18 04:22:24;;;;;;;5.68;3.60;;;;;;;;;;5091521;28;20048;-61
2023/08/18 04:24:50;;;;;;;6.15;3.85;;;;;;;;;;5091590;28;20046;-61
2023/08/18 04:27:16;;;;;;;6.07;3.60;;;;;;;;;;5091289;28;20078;-61
2023/08/18 04:29:42;;;;;;;6.97;3.97;;;;;;;;;;5090780;28;20044;-61
2023/08/18 04:32:08;;;;;;;8.38;4.30;;;;;;;;;;5091242;28;20410;-61
2023/08/18 04:34:34;;;;;;;7.25;3.63;;;;;;;;;;5090832;28;20036;-61
2023/08/18 04:37:00;;;;;;;6.05;3.55;;;;;;;;;;5090491;28;20090;-61
2023/08/18 04:39:26;;;;;;;7.57;4.55;;;;;;;;;;5071939;28;20052;-61
2023/08/18 04:41:52;;;;;;;11.85;4.38;;;;;;;;;;5071612;28;20066;-61
2023/08/18 04:44:18;;;;;;;7.85;3.40;;;;;;;;;;5071515;28;20041;-61
2023/08/18 04:46:44;;;;;;;7.70;4.05;;;;;;;;;;5072006;28;20045;-61
2023/08/18 04:49:10;;;;;;;8.70;3.95;;;;;;;;;;5078997;28;20109;-61
2023/08/18 04:51:36;;;;;;;5.30;4.10;;;;;;;;;;5090586;28;20135;-61
2023/08/18 04:54:03;;;;;;;6.13;4.10;;;;;;;;;;5092059;28;20123;-61
2023/08/18 04:56:29;;;;;;;7.70;4.18;;;;;;;;;;5092327;28;20420;-61
2023/08/18 04:58:55;;;;;;;6.88;3.92;;;;;;;;;;5091582;28;20044;-61
2023/08/18 05:01:21;;;;;;;4.70;3.55;;;;;;;;;;5091701;28;20044;-61
2023/08/18 05:03:47;;;;;;;7.10;3.90;;;;;;;;;;5091902;28;20051;-61
2023/08/18 05:06:13;;;;;;;6.18;3.85;;;;;;;;;;5091714;28;20462;-61
2023/08/18 05:08:40;;;;;;;6.05;3.90;;;;;;;;;;5091784;28;20241;-61
2023/08/18 05:11:10;;;;;;;6.88;4.10;;;;;;;;;;5091605;28;20068;-61
2023/08/18 05:13:37;;;;;;;7.22;4.20;;;;;;;;;;5091593;28;20036;-61
2023/08/18 05:16:03;;;;;;;10.70;5.05;;;;;;;;;;5092154;28;20427;-61
2023/08/18 05:18:30;;;;;;;8.55;4.43;;;;;;;;;;5092013;28;20463;-61
2023/08/18 05:20:57;;;;;;;9.13;3.90;;;;;;;;;;5090916;28;20095;-61
2023/08/18 05:23:24;;;;;;;8.93;4.10;;;;;;;;;;5091886;28;20043;-61
2023/08/18 05:25:54;;;;;;;9.27;3.95;;;;;;;;;;5091382;28;20044;-61
2023/08/18 05:28:20;;;;;;;7.22;4.10;;;;;;;;;;5090823;28;20064;-61
2023/08/18 05:30:46;;;;;;;8.07;4.00;;;;;;;;;;5091305;28;20371;-61
2023/08/18 05:33:12;;;;;;;7.10;4.70;;;;;;;;;;5075232;28;20059;-60
2023/08/18 05:35:38;;;;;;;6.15;3.80;;;;;;;;;;5077440;28;20490;-63
2023/08/18 05:38:10;;;;;;;10.48;4.30;;;;;;;;;;5080095;28;20051;-64
2023/08/18 05:40:49;;;;;;;7.85;4.18;;;;;;;;;;5090866;28;20051;-62
2023/08/18 05:43:16;;;;;;;7.35;4.32;;;;;;;;;;5090608;28;20040;-63
2023/08/18 05:45:43;;;;;;;7.63;4.75;;;;;;;;;;5094484;28;20036;-63
2023/08/18 05:48:09;;;;;;;8.40;4.85;;;;;;;;;;5094899;28;20048;-63
2023/08/18 05:50:35;;;;;;;8.98;5.25;;;;;;;;;;5094817;28;20048;-63
2023/08/18 05:53:02;;;;;;;7.13;5.10;;;;;;;;;;5095059;28;20076;-63
2023/08/18 05:55:28;;;;;;;7.75;5.70;;;;;;;;;;5095117;28;20047;-63
2023/08/18 05:57:54;;;;;;;11.65;5.82;;;;;;;;;;5094800;28;20040;-63
2023/08/18 06:00:21;;;;;;;8.90;5.15;;;;;;;;;;5095109;28;20039;-63
2023/08/18 06:02:47;;;;;;;12.00;6.63;;;;;;;;;;5095137;28;20040;-63
2023/08/18 06:05:13;;;;;;;9.73;6.03;;;;;;;;;;5094614;28;20039;-63
2023/08/18 06:07:42;;;;;;;13.27;7.10;;;;;;;;;;5094767;28;20372;-63
2023/08/18 06:10:09;;;;;;;14.15;7.13;;;;;;;;;;5095084;28;20061;-63
2023/08/18 06:12:37;;;;;;;12.40;7.07;;;;;;;;;;5094301;28;20036;-63
2023/08/18 06:15:04;;;;;;;15.35;7.07;;;;;;;;;;5094747;28;20441;-62
2023/08/18 06:17:30;;;;;;;13.23;6.97;;;;;;;;;;5095098;28;20046;-62
2023/08/18 06:19:56;;;;;;;14.27;7.43;;;;;;;;;;5094263;28;20401;-63
2023/08/18 06:22:22;;;;;;;10.55;7.22;;;;;;;;;;5094867;28;20047;-63
2023/08/18 06:24:48;;;;;;;14.15;7.15;;;;;;;;;;5094492;28;20036;-63
2023/08/18 06:27:14;;;;;;;18.30;8.02;;;;;;;;;;5094206;28;20481;-62
2023/08/18 06:29:40;;;;;;;16.23;7.95;;;;;;;;;;5094011;28;20052;-62
2023/08/18 06:32:06;;;;;;;11.55;7.43;;;;;;;;;;5094587;28;20407;-63
2023/08/18 06:34:32;;;;;;;12.20;7.57;;;;;;;;;;5094499;28;20070;-62
2023/08/18 06:36:58;;;;;;;13.15;7.20;;;;;;;;;;5094058;28;20051;-62
2023/08/18 06:39:24;;;;;;;15.93;7.75;;;;;;;;;;5094403;28;20122;-62
2023/08/18 06:41:50;;;;;;;20.60;8.45;;;;;;;;;;5094344;28;20040;-63
2023/08/18 06:44:16;;;;;;;14.50;8.35;;;;;;;;;;5093629;28;20051;-63
2023/08/18 06:46:42;;;;;;;16.23;8.25;;;;;;;;;;5094590;28;20077;-62
2023/08/18 06:49:08;;;;;;;16.73;8.23;;;;;;;;;;5094350;28;20035;-62
2023/08/18 06:51:34;;;;;;;21.55;8.65;;;;;;;;;;5093827;28;20119;-63
2023/08/18 06:54:00;;;;;;;16.52;8.45;;;;;;;;;;5094344;28;20089;-63
2023/08/18 06:56:26;;;;;;;18.15;8.95;;;;;;;;;;5093497;28;20044;-63
2023/08/18 06:58:52;;;;;;;15.93;8.50;;;;;;;;;;5090237;28;20436;-62
2023/08/18 07:01:18;;;;;;;19.08;9.25;;;;;;;;;;5092105;28;20085;-63
2023/08/18 07:03:45;;;;;;;16.83;7.40;;;;;;;;;;5093648;28;20047;-62
2023/08/18 07:06:11;;;;;;;21.08;8.77;;;;;;;;;;5093549;28;20127;-62
2023/08/18 07:08:37;;;;;;;16.85;8.57;;;;;;;;;;5093950;28;20047;-62
2023/08/18 07:11:03;;;;;;;14.63;7.15;;;;;;;;;;5094285;28;20044;-62
2023/08/18 07:13:29;;;;;;;16.52;7.50;;;;;;;;;;5092290;28;20043;-62
2023/08/18 07:15:55;;;;;;;20.88;8.07;;;;;;;;;;5093906;28;20429;-62
2023/08/18 07:18:21;;;;;;;21.40;9.20;;;;;;;;;;5093907;28;20054;-62
2023/08/18 07:20:47;;;;;;;13.65;8.23;;;;;;;;;;5093114;28;20046;-62
2023/08/18 07:23:14;;;;;;;17.48;9.73;;;;;;;;;;5093850;28;20080;-62
2023/08/18 07:25:41;;;;;;;15.27;7.82;;;;;;;;;;5093448;28;20375;-64
2023/08/18 07:28:07;;;;;;;18.40;9.07;;;;;;;;;;5092807;28;20047;-64
2023/08/18 07:30:33;;;;;;;17.38;8.55;;;;;;;;;;5093112;28;20048;-64
2023/08/18 07:32:59;;;;;;;22.02;9.27;;;;;;;;;;5093251;28;20036;-64
2023/08/18 07:35:25;;;;;;;16.77;9.02;;;;;;;;;;5092879;28;20043;-63
2023/08/18 07:37:52;;;;;;;20.30;9.13;;;;;;;;;;5093294;28;20036;-63
2023/08/18 07:40:18;;;;;;;19.55;8.80;;;;;;;;;;5093198;28;20494;-63
2023/08/18 07:42:44;;;;;;;24.20;10.10;;;;;;;;;;5093093;28;20043;-63
2023/08/18 07:45:11;;;;;;;22.45;9.80;;;;;;;;;;5093193;28;20066;-63
2023/08/18 07:47:38;;;;;;;22.00;9.18;;;;;;;;;;5093124;28;20036;-63
2023/08/18 07:50:07;;;;;;;23.95;9.45;;;;;;;;;;5092515;28;20034;-63
2023/08/18 07:52:34;;;;;;;22.55;10.07;;;;;;;;;;5093029;28;20036;-62
2023/08/18 07:55:01;;;;;;;27.00;9.68;;;;;;;;;;5092820;28;20080;-62
2023/08/18 07:57:27;;;;;;;23.98;10.13;;;;;;;;;;5092600;28;20050;-62
2023/08/18 07:59:53;;;;;;;21.13;10.10;;;;;;;;;;5092680;28;20052;-62
2023/08/18 08:02:19;;;;;;;20.95;10.00;;;;;;;;;;5093237;28;20048;-63
2023/08/18 08:04:45;;;;;;;23.77;10.65;;;;;;;;;;5092444;28;20047;-63
2023/08/18 08:07:12;;;;;;;24.23;9.40;;;;;;;;;;5092630;28;20040;-63
2023/08/18 08:09:38;;;;;;;20.55;9.32;;;;;;;;;;5091552;28;20115;-63
2023/08/18 08:12:05;;;;;;;22.00;8.30;;;;;;;;;;5092312;28;20131;-63
2023/08/18 08:14:31;;;;;;;19.05;8.55;;;;;;;;;;5092242;28;20043;-63
2023/08/18 08:16:57;;;;;;;19.65;8.45;;;;;;;;;;5092663;28;20036;-63
2023/08/18 08:19:23;;;;;;;18.17;7.22;;;;;;;;;;5092381;28;20661;-64
2023/08/18 08:21:49;;;;;;;19.15;8.32;;;;;;;;;;5072275;28;20455;-63
2023/08/18 08:24:15;;;;;;;16.73;7.50;;;;;;;;;;5077596;28;20068;-64
2023/08/18 08:26:41;;;;;;;14.90;8.05;;;;;;;;;;5092166;28;20155;-63
2023/08/18 08:29:07;;;;;;;15.18;7.82;;;;;;;;;;5091732;28;20480;-63
2023/08/18 08:31:33;;;;;;;16.55;7.63;;;;;;;;;;5084300;28;20098;-63
2023/08/18 08:33:59;;;;;;;16.50;7.43;;;;;;;;;;5091601;28;20051;-63
2023/08/18 08:36:32;;;;;;;16.70;7.70;;;;;;;;;;5092080;28;20055;-63
2023/08/18 08:38:58;;;;;;;18.45;7.40;;;;;;;;;;5092055;28;20114;-62
2023/08/18 08:41:24;;;;;;;18.77;8.13;;;;;;;;;;5091691;28;20510;-63
2023/08/18 08:43:50;;;;;;;15.10;7.80;;;;;;;;;;5092077;28;20050;-63
2023/08/18 08:46:17;;;;;;;17.77;8.13;;;;;;;;;;5092211;28;20051;-63
2023/08/18 08:48:46;;;;;;;16.23;8.02;;;;;;;;;;5091548;28;20040;-63
2023/08/18 08:51:13;;;;;;;16.20;8.23;;;;;;;;;;5090830;28;20165;-63
2023/08/18 08:53:45;;;;;;;13.85;7.43;;;;;;;;;;5091783;28;20112;-63
2023/08/18 08:56:11;;;;;;;20.17;8.52;;;;;;;;;;5091542;28;20536;-62
2023/08/18 08:58:37;;;;;;;26.38;9.32;;;;;;;;;;5092004;28;20040;-62
2023/08/18 09:01:06;;;;;;;19.42;8.32;;;;;;;;;;5091504;28;20469;-63
2023/08/18 09:03:33;;;;;;;15.45;7.85;;;;;;;;;;5091238;28;20044;-63
2023/08/18 09:05:59;;;;;;;21.35;8.35;;;;;;;;;;5091770;28;20109;-63
2023/08/18 09:08:25;;;;;;;16.95;8.43;;;;;;;;;;5091620;28;20044;-63
2023/08/18 09:10:51;;;;;;;17.10;8.25;;;;;;;;;;5091461;28;20032;-63
2023/08/18 09:13:18;;;;;;;19.45;9.10;;;;;;;;;;5091577;28;20044;-63
2023/08/18 09:15:44;;;;;;;25.13;9.90;;;;;;;;;;5091531;28;20035;-63
2023/08/18 09:18:14;;;;;;;81.90;17.30;;;;;;;;;;5091390;28;20150;-63
2023/08/18 09:20:44;;;;;;;155.55;31.98;;;;;;;;;;5091091;28;20524;-64
2023/08/18 09:23:10;;;;;;;47.25;14.70;;;;;;;;;;5091603;28;20048;-63
2023/08/18 09:25:37;;;;;;;38.53;12.73;;;;;;;;;;5090870;28;20036;-64
2023/08/18 09:28:03;;;;;;;19.20;9.30;;;;;;;;;;5090751;28;20051;-64
2023/08/18 09:30:34;;;;;;;20.90;8.93;;;;;;;;;;5091496;28;20507;-64
2023/08/18 09:33:03;;;;;;;18.45;9.73;;;;;;;;;;5090862;28;20063;-64
2023/08/18 09:35:34;;;;;;;21.20;9.43;;;;;;;;;;5091503;28;20044;-64
2023/08/18 09:38:01;;;;;;;24.50;10.38;;;;;;;;;;5090149;28;20043;-64
2023/08/18 09:40:27;;;;;;;21.95;9.45;;;;;;;;;;5091037;28;20047;-64
2023/08/18 09:42:54;;;;;;;17.23;9.35;;;;;;;;;;5091218;28;20062;-64
2023/08/18 09:45:23;;;;;;;17.88;9.40;;;;;;;;;;5091420;28;20048;-64
2023/08/18 09:47:53;;;;;;;17.70;9.55;;;;;;;;;;5090802;28;20071;-64
2023/08/18 09:50:20;;;;;;;16.38;8.90;;;;;;;;;;5090966;28;20044;-64
2023/08/18 09:52:49;;;;;;;16.70;8.70;;;;;;;;;;5086833;28;20036;-64
2023/08/18 09:55:16;;;;;;;18.90;9.93;;;;;;;;;;5090855;28;20040;-64
2023/08/18 09:57:57;;;;;;;20.55;9.68;;;;;;;;;;5091194;28;20526;-64
2023/08/18 10:00:24;;;;;;;16.27;8.77;;;;;;;;;;5086874;28;20047;-64
2023/08/18 10:02:52;;;;;;;17.52;8.93;;;;;;;;;;5070725;28;20237;-63
2023/08/18 10:05:19;;;;;;;17.52;8.63;;;;;;;;;;5083856;28;20584;-63
2023/08/18 10:07:45;;;;;;;14.43;8.15;;;;;;;;;;5090588;28;20048;-63
2023/08/18 10:10:11;;;;;;;18.50;8.77;;;;;;;;;;5090194;28;20424;-63
2023/08/18 10:12:37;;;;;;;18.00;7.55;;;;;;;;;;5091036;28;20430;-63
2023/08/18 10:15:04;;;;;;;13.50;8.05;;;;;;;;;;5091156;28;20070;-63
2023/08/18 10:17:30;;;;;;;18.67;8.20;;;;;;;;;;5090609;28;20445;-63
2023/08/18 10:19:58;;;;;;;13.07;8.07;;;;;;;;;;5089862;28;20420;-63
2023/08/18 10:22:25;;;;;;;14.18;8.10;;;;;;;;;;5072344;28;20427;-64
2023/08/18 10:24:52;;;;;;;15.45;8.45;;;;;;;;;;5078857;28;20046;-64
2023/08/18 10:27:27;;;;;;;13.73;9.18;;;;;;;;;;5090880;28;20101;-63
2023/08/18 10:30:05;;;;;;;15.20;8.80;;;;;;;;;;5090389;28;20048;-63
2023/08/18 10:32:32;;;;;;;14.35;9.00;;;;;;;;;;5093184;28;20130;-63
2023/08/18 10:35:17;;;;;;;12.48;8.38;;;;;;;;;;5094779;28;20036;-64
2023/08/18 10:37:43;;;;;;;13.40;8.95;;;;;;;;;;5089785;28;20154;-63
2023/08/18 10:40:10;;;;;;;13.68;8.07;;;;;;;;;;5094064;28;20076;-63
2023/08/18 10:42:36;;;;;;;14.77;8.73;;;;;;;;;;5094630;28;20044;-63
2023/08/18 10:45:05;;;;;;;12.40;9.05;;;;;;;;;;5094155;28;20612;-63
2023/08/18 10:47:32;;;;;;;16.02;9.32;;;;;;;;;;5094153;28;20041;-63
2023/08/18 10:49:59;;;;;;;17.30;9.25;;;;;;;;;;5079579;28;20041;-63
2023/08/18 10:52:27;;;;;;;14.60;8.60;;;;;;;;;;5078017;28;20033;-63
2023/08/18 10:54:53;;;;;;;14.68;9.63;;;;;;;;;;5093921;28;20420;-63
2023/08/18 10:57:19;;;;;;;15.18;9.38;;;;;;;;;;5094254;28;20036;-63
2023/08/18 10:59:45;;;;;;;13.40;8.80;;;;;;;;;;5094203;28;20036;-63
2023/08/18 11:02:12;;;;;;;14.77;9.05;;;;;;;;;;5093850;28;20036;-63
2023/08/18 11:04:38;;;;;;;16.70;9.70;;;;;;;;;;5094281;28;20435;-63
2023/08/18 11:07:05;;;;;;;14.23;9.35;;;;;;;;;;5094112;28;20040;-63
2023/08/18 11:09:31;;;;;;;16.77;9.73;;;;;;;;;;5093135;28;20048;-63
2023/08/18 11:11:57;;;;;;;12.65;9.02;;;;;;;;;;5094205;28;20036;-63
2023/08/18 11:14:23;;;;;;;14.65;9.10;;;;;;;;;;5093943;28;20644;-63
2023/08/18 11:16:49;;;;;;;15.13;9.95;;;;;;;;;;5093637;28;20512;-62
2023/08/18 11:19:15;;;;;;;13.95;10.05;;;;;;;;;;5094187;28;20127;-63
2023/08/18 11:21:42;;;;;;;15.07;9.57;;;;;;;;;;5093775;28;20125;-63
2023/08/18 11:24:08;;;;;;;18.95;10.32;;;;;;;;;;5093302;28;20044;-63
2023/08/18 11:26:36;;;;;;;14.88;9.73;;;;;;;;;;5093837;28;20047;-64
2023/08/18 11:29:02;;;;;;;14.82;9.85;;;;;;;;;;5093291;28;20058;-64
2023/08/18 11:31:29;;;;;;;12.18;9.05;;;;;;;;;;5093366;28;20390;-62
2023/08/18 11:33:55;;;;;;;12.85;10.07;;;;;;;;;;5093335;28;20189;-62
2023/08/18 11:36:21;;;;;;;13.50;9.35;;;;;;;;;;5093458;28;20040;-63
2023/08/18 11:38:50;;;;;;;14.23;10.15;;;;;;;;;;5093263;28;20119;-63
2023/08/18 11:41:16;;;;;;;11.93;9.88;;;;;;;;;;5093375;28;20048;-63
2023/08/18 11:43:42;;;;;;;11.50;9.60;;;;;;;;;;5093111;28;20489;-64
2023/08/18 11:46:08;;;;;;;13.20;8.82;;;;;;;;;;5092816;28;20047;-62
2023/08/18 11:48:34;;;;;;;14.15;8.55;;;;;;;;;;5092996;28;20044;-62
2023/08/18 11:51:00;;;;;;;14.07;9.25;;;;;;;;;;5093339;28;20494;-62
2023/08/18 11:53:28;;;;;;;13.45;9.82;;;;;;;;;;5092741;28;20070;-62
2023/08/18 11:55:56;;;;;;;12.13;10.15;;;;;;;;;;5093295;28;20079;-63
2023/08/18 11:58:23;;;;;;;14.85;8.88;;;;;;;;;;5093175;28;20032;-62
2023/08/18 12:00:49;;;;;;;12.52;8.77;;;;;;;;;;5092193;28;20040;-63
2023/08/18 12:03:26;;;;;;;12.02;8.88;;;;;;;;;;5090259;28;20084;-63
2023/08/18 12:05:53;;;;;;;13.00;10.40;;;;;;;;;;5091922;28;20046;-63
2023/08/18 12:08:19;;;;;;;12.70;9.82;;;;;;;;;;5092077;28;20429;-63
2023/08/18 12:10:49;;;;;;;12.07;9.68;;;;;;;;;;5092896;28;20123;-64
2023/08/18 12:13:16;;;;;;;10.68;8.77;;;;;;;;;;5092265;28;20048;-63
2023/08/18 12:15:42;;;;;;;13.77;9.30;;;;;;;;;;5091853;28;20123;-63
2023/08/18 12:18:08;;;;;;;11.73;10.52;;;;;;;;;;5092263;28;20127;-63
2023/08/18 12:20:35;;;;;;;13.45;9.35;;;;;;;;;;5083021;28;20036;-63
2023/08/18 12:23:03;;;;;;;10.13;8.90;;;;;;;;;;5072190;28;20040;-62
2023/08/18 12:25:29;;;;;;;11.35;8.10;;;;;;;;;;5091443;28;20494;-63
2023/08/18 12:27:55;;;;;;;11.45;7.93;;;;;;;;;;5092354;28;20127;-63
2023/08/18 12:30:21;;;;;;;8.68;7.70;;;;;;;;;;5091631;28;20044;-63
2023/08/18 12:32:48;;;;;;;9.70;8.70;;;;;;;;;;5092480;28;20047;-63
2023/08/18 12:35:15;;;;;;;10.98;9.85;;;;;;;;;;5092351;28;20082;-63
2023/08/18 12:37:41;;;;;;;11.65;8.18;;;;;;;;;;5092129;28;20467;-64
2023/08/18 12:40:10;;;;;;;14.02;9.40;;;;;;;;;;5092255;28;20036;-64
2023/08/18 12:42:39;;;;;;;10.63;8.93;;;;;;;;;;5092562;28;20066;-64
2023/08/18 12:45:06;;;;;;;8.52;7.63;;;;;;;;;;5090266;28;20047;-64
2023/08/18 12:47:32;;;;;;;9.55;7.40;;;;;;;;;;5092244;28;20044;-64
2023/08/18 12:49:59;;;;;;;8.75;7.85;;;;;;;;;;5092013;28;20036;-64
2023/08/18 12:52:25;;;;;;;9.63;7.22;;;;;;;;;;5091456;28;20093;-63
2023/08/18 12:54:51;;;;;;;9.75;8.40;;;;;;;;;;5091235;28;20052;-63
2023/08/18 12:57:17;;;;;;;9.77;7.72;;;;;;;;;;5091786;28;20402;-63
2023/08/18 12:59:43;;;;;;;9.55;8.35;;;;;;;;;;5091316;28;20032;-63
2023/08/18 13:02:09;;;;;;;11.20;8.38;;;;;;;;;;5090560;28;20465;-64
2023/08/18 13:04:35;;;;;;;9.73;8.07;;;;;;;;;;5091917;28;20091;-63
2023/08/18 13:07:02;;;;;;;13.32;9.10;;;;;;;;;;5091444;28;20039;-63
2023/08/18 13:09:29;;;;;;;10.48;8.20;;;;;;;;;;5091694;28;20421;-63
2023/08/18 13:11:55;;;;;;;11.35;8.95;;;;;;;;;;5091765;28;20032;-63
2023/08/18 13:14:21;;;;;;;11.02;9.13;;;;;;;;;;5090155;28;20040;-63
2023/08/18 13:16:52;;;;;;;10.10;8.45;;;;;;;;;;5091879;28;20490;-63
2023/08/18 13:19:19;;;;;;;11.90;8.40;;;;;;;;;;5091830;28;20044;-63
2023/08/18 13:21:45;;;;;;;11.25;9.25;;;;;;;;;;5091408;28;20044;-63
2023/08/18 13:24:11;;;;;;;10.85;8.93;;;;;;;;;;5091920;28;20047;-63
2023/08/18 13:26:39;;;;;;;10.38;8.77;;;;;;;;;;5091967;28;20040;-64
2023/08/18 13:29:05;;;;;;;11.52;8.95;;;;;;;;;;5091277;28;20553;-64
2023/08/18 13:31:31;;;;;;;12.32;8.38;;;;;;;;;;5091606;28;20075;-63
2023/08/18 13:33:57;;;;;;;11.23;9.57;;;;;;;;;;5091591;28;20406;-63
2023/08/18 13:36:23;;;;;;;11.52;10.15;;;;;;;;;;5090399;28;20050;-64
2023/08/18 13:38:49;;;;;;;11.60;7.95;;;;;;;;;;5090865;28;20119;-64
2023/08/18 13:41:16;;;;;;;11.38;8.82;;;;;;;;;;5091513;28;20186;-63
2023/08/18 13:43:42;;;;;;;11.57;9.25;;;;;;;;;;5091689;28;20044;-63
2023/08/18 13:46:08;;;;;;;15.85;10.40;;;;;;;;;;5091367;28;20042;-64
2023/08/18 13:48:35;;;;;;;10.48;8.75;;;;;;;;;;5089446;28;20047;-64
2023/08/18 13:51:01;;;;;;;9.98;8.90;;;;;;;;;;5070961;28;20044;-64
2023/08/18 13:53:29;;;;;;;9.63;8.70;;;;;;;;;;5070895;28;20049;-64
2023/08/18 13:55:56;;;;;;;11.55;8.07;;;;;;;;;;5071383;28;20040;-64
2023/08/18 13:58:22;;;;;;;9.95;8.73;;;;;;;;;;5071208;28;20040;-64
2023/08/18 14:00:48;;;;;;;12.68;10.20;;;;;;;;;;5070828;28;20032;-64
2023/08/18 14:03:14;;;;;;;8.80;7.32;;;;;;;;;;5071324;28;20437;-64
2023/08/18 14:05:43;;;;;;;10.07;7.90;;;;;;;;;;5072235;28;20037;-64
2023/08/18 14:08:09;;;;;;;12.68;8.88;;;;;;;;;;5074810;28;20032;-64
2023/08/18 14:10:36;;;;;;;11.57;9.15;;;;;;;;;;5074729;28;20040;-64
2023/08/18 14:13:03;;;;;;;11.05;8.15;;;;;;;;;;5075166;28;20041;-64
2023/08/18 14:15:29;;;;;;;9.18;7.55;;;;;;;;;;5074341;28;20047;-64
2023/08/18 14:17:55;;;;;;;10.10;8.25;;;;;;;;;;5075112;28;20090;-64
2023/08/18 14:20:21;;;;;;;9.23;7.60;;;;;;;;;;5074841;28;20489;-64
2023/08/18 14:22:50;;;;;;;10.05;7.97;;;;;;;;;;5074470;28;20036;-64
2023/08/18 14:25:17;;;;;;;9.70;6.60;;;;;;;;;;5074923;28;20071;-64
2023/08/18 14:27:44;;;;;;;10.82;7.70;;;;;;;;;;5074468;28;20063;-64
2023/08/18 14:30:10;;;;;;;8.82;7.57;;;;;;;;;;5074383;28;20102;-64
2023/08/18 14:32:36;;;;;;;8.60;6.90;;;;;;;;;;5074789;28;20493;-64